createdAt,value
2023-10-07T00:01:37.377Z,12.40
2023-10-07T00:04:13.376Z,12.60
2023-10-07T00:06:50.074Z,12.30
2023-10-07T00:09:25.016Z,12.60
2023-10-07T00:11:57.399Z,12.30
2023-10-07T00:14:34.022Z,12.30
2023-10-07T00:17:11.483Z,12.30
2023-10-07T00:19:46.375Z,12.20
2023-10-07T00:22:24.680Z,12.30
2023-10-07T00:24:57.947Z,12.30
2023-10-07T00:27:42.479Z,12.60
2023-10-07T00:30:32.446Z,12.60
2023-10-07T00:33:14.387Z,11.90
2023-10-07T00:35:53.757Z,12.50
2023-10-07T00:38:46.515Z,12.10
2023-10-07T00:41:23.344Z,12.30
2023-10-07T00:44:02.674Z,12.30
2023-10-07T00:46:37.777Z,12.40
2023-10-07T00:49:18.491Z,12.60
2023-10-07T00:51:56.782Z,12.60
2023-10-07T00:54:52.027Z,12.10
2023-10-07T00:57:38.003Z,12.60
2023-10-07T01:00:36.939Z,12.40
2023-10-07T01:03:20.218Z,12.50
2023-10-07T01:06:11.846Z,12.10
2023-10-07T01:08:53.721Z,12.20
2023-10-07T01:11:32.601Z,12.10
2023-10-07T01:14:07.734Z,12.30
2023-10-07T01:16:45.085Z,12.10
2023-10-07T01:19:33.036Z,12.10
2023-10-07T01:22:12.203Z,12.30
2023-10-07T01:24:52.726Z,12.20
2023-10-07T01:27:37.517Z,12.00
2023-10-07T01:30:18.162Z,12.00
2023-10-07T01:33:04.011Z,12.20
2023-10-07T01:35:40.018Z,12.00
2023-10-07T01:38:09.822Z,11.80
2023-10-07T01:40:56.910Z,11.80
2023-10-07T01:43:28.173Z,12.10
2023-10-07T01:45:57.467Z,11.70
2023-10-07T01:48:29.272Z,11.90
2023-10-07T01:51:00.083Z,11.70
2023-10-07T01:53:29.481Z,11.90
2023-10-07T01:56:06.466Z,11.80
2023-10-07T01:58:37.424Z,11.90
2023-10-07T02:01:07.445Z,11.20
2023-10-07T02:03:36.594Z,11.80
2023-10-07T02:06:06.993Z,11.70
2023-10-07T02:08:38.495Z,11.90
2023-10-07T02:11:08.210Z,12.00
2023-10-07T02:13:39.657Z,11.70
2023-10-07T02:16:09.244Z,11.80
2023-10-07T02:18:37.633Z,11.80
2023-10-07T02:21:09.496Z,11.90
2023-10-07T02:23:41.527Z,11.70
2023-10-07T02:26:15.880Z,11.90
2023-10-07T02:28:45.285Z,11.80
2023-10-07T02:31:18.230Z,11.80
2023-10-07T02:33:47.557Z,11.30
2023-10-07T02:36:29.215Z,11.70
2023-10-07T02:39:02.298Z,11.60
2023-10-07T02:41:32.780Z,11.40
2023-10-07T02:44:06.256Z,11.50
2023-10-07T02:46:35.140Z,11.70
2023-10-07T02:49:06.325Z,12.20
2023-10-07T02:51:41.375Z,11.60
2023-10-07T02:54:18.785Z,11.00
2023-10-07T02:56:55.835Z,11.20
2023-10-07T02:59:29.018Z,11.60
2023-10-07T03:02:14.683Z,11.80
2023-10-07T03:04:43.634Z,11.50
2023-10-07T03:07:18.110Z,10.90
2023-10-07T03:09:54.106Z,11.60
2023-10-07T03:12:29.625Z,10.90
2023-10-07T03:15:03.054Z,10.80
2023-10-07T03:17:39.430Z,11.90
2023-10-07T03:20:22.450Z,11.30
2023-10-07T03:23:04.951Z,11.30
2023-10-07T03:25:49.587Z,11.30
2023-10-07T03:28:19.831Z,10.90
2023-10-07T03:30:52.616Z,10.80
2023-10-07T03:33:24.993Z,11.30
2023-10-07T03:36:09.996Z,11.70
2023-10-07T03:38:40.140Z,10.90
2023-10-07T03:41:10.917Z,11.10
2023-10-07T03:43:42.619Z,11.10
2023-10-07T03:46:10.779Z,10.90
2023-10-07T03:48:40.779Z,11.30
2023-10-07T03:51:09.790Z,10.70
2023-10-07T03:53:45.728Z,11.50
2023-10-07T03:56:14.417Z,11.30
2023-10-07T03:58:44.518Z,10.90
2023-10-07T04:01:19.385Z,10.60
2023-10-07T04:03:49.192Z,10.80
2023-10-07T04:06:18.523Z,11.30
2023-10-07T04:08:54.015Z,11.30
2023-10-07T04:11:27.820Z,11.80
2023-10-07T04:13:57.885Z,11.10
2023-10-07T04:16:28.478Z,11.30
2023-10-07T04:19:07.953Z,10.70
2023-10-07T04:21:40.905Z,11.20
2023-10-07T04:24:12.267Z,11.40
2023-10-07T04:26:41.517Z,11.30
2023-10-07T04:29:16.388Z,11.80
2023-10-07T04:31:48.842Z,11.50
2023-10-07T04:34:18.225Z,11.30
2023-10-07T04:37:12.099Z,11.20
2023-10-07T04:39:54.484Z,11.30
2023-10-07T04:42:22.768Z,11.10
2023-10-07T04:45:19.018Z,11.30
2023-10-07T04:47:48.954Z,11.30
2023-10-07T04:50:17.084Z,10.80
2023-10-07T04:52:52.050Z,11.20
2023-10-07T04:55:27.430Z,11.30
2023-10-07T04:57:58.312Z,11.40
2023-10-07T05:00:38.270Z,11.50
2023-10-07T05:03:12.350Z,11.20
2023-10-07T05:05:44.486Z,11.10
2023-10-07T05:08:12.550Z,11.00
2023-10-07T05:10:43.018Z,11.30
2023-10-07T05:13:11.746Z,11.20
2023-10-07T05:15:43.385Z,11.20
2023-10-07T05:18:14.340Z,11.20
2023-10-07T05:20:43.237Z,11.00
2023-10-07T05:23:15.519Z,11.20
2023-10-07T05:25:49.699Z,11.50
2023-10-07T05:28:21.998Z,10.70
2023-10-07T05:30:53.128Z,11.30
2023-10-07T05:33:25.889Z,10.70
2023-10-07T05:35:59.539Z,11.90
2023-10-07T05:38:27.631Z,11.30
2023-10-07T05:40:56.144Z,11.00
2023-10-07T05:43:24.331Z,10.80
2023-10-07T05:45:54.665Z,11.30
2023-10-07T05:48:22.794Z,10.80
2023-10-07T05:50:50.892Z,11.80
2023-10-07T05:53:18.978Z,11.00
2023-10-07T05:55:49.571Z,10.90
2023-10-07T05:58:21.542Z,11.30
2023-10-07T06:00:49.678Z,10.80
2023-10-07T06:03:19.192Z,11.30
2023-10-07T06:05:47.372Z,10.90
2023-10-07T06:08:16.604Z,11.60
2023-10-07T06:10:53.121Z,11.40
2023-10-07T06:13:21.179Z,10.90
2023-10-07T06:15:49.362Z,11.50
2023-10-07T06:18:19.973Z,11.40
2023-10-07T06:20:48.737Z,11.00
2023-10-07T06:23:17.665Z,10.90
2023-10-07T06:25:50.317Z,10.90
2023-10-07T06:28:30.972Z,11.40
2023-10-07T06:31:11.554Z,11.50
2023-10-07T06:33:41.763Z,10.90
2023-10-07T06:36:11.474Z,12.00
2023-10-07T06:38:46.342Z,11.60
2023-10-07T06:41:14.834Z,11.20
2023-10-07T06:43:44.172Z,11.70
2023-10-07T06:46:13.340Z,12.10
2023-10-07T06:48:44.368Z,11.30
2023-10-07T06:51:12.661Z,12.00
2023-10-07T06:53:44.256Z,11.70
2023-10-07T06:56:22.492Z,11.20
2023-10-07T06:58:54.812Z,11.70
2023-10-07T07:01:38.813Z,11.50
2023-10-07T07:04:12.564Z,11.80
2023-10-07T07:06:44.057Z,12.10
2023-10-07T07:09:26.357Z,11.70
2023-10-07T07:11:56.790Z,11.60
2023-10-07T07:14:29.252Z,11.50
2023-10-07T07:16:58.384Z,11.60
2023-10-07T07:19:28.358Z,11.70
2023-10-07T07:21:58.573Z,11.70
2023-10-07T07:24:26.727Z,11.40
2023-10-07T07:26:54.197Z,12.30
2023-10-07T07:29:24.891Z,11.90
2023-10-07T07:31:52.902Z,11.60
2023-10-07T07:34:27.078Z,12.30
2023-10-07T07:37:04.402Z,11.60
2023-10-07T07:39:32.439Z,11.30
2023-10-07T07:42:16.619Z,11.40
2023-10-07T07:44:56.873Z,11.80
2023-10-07T07:47:28.746Z,12.20
2023-10-07T07:49:57.065Z,11.40
2023-10-07T07:52:26.579Z,12.00
2023-10-07T07:54:55.147Z,11.70
2023-10-07T07:57:25.871Z,11.60
2023-10-07T07:59:53.877Z,11.90
2023-10-07T08:02:25.467Z,12.00
2023-10-07T08:05:04.072Z,12.00
2023-10-07T08:07:34.301Z,12.00
2023-10-07T08:10:05.168Z,12.00
2023-10-07T08:12:35.555Z,12.80
2023-10-07T08:15:16.398Z,12.00
2023-10-07T08:17:46.299Z,12.50
2023-10-07T08:20:19.921Z,12.20
2023-10-07T08:22:53.215Z,12.90
2023-10-07T08:25:36.205Z,12.50
2023-10-07T08:28:19.420Z,12.50
2023-10-07T08:30:48.769Z,12.90
2023-10-07T08:33:17.302Z,12.70
2023-10-07T08:35:45.535Z,13.20
2023-10-07T08:38:23.921Z,12.70
2023-10-07T08:41:05.768Z,13.00
2023-10-07T08:43:39.049Z,13.10
2023-10-07T08:46:09.760Z,13.70
2023-10-07T08:48:39.981Z,13.40
2023-10-07T08:51:16.013Z,12.90
2023-10-07T08:53:49.025Z,13.30
2023-10-07T08:56:19.400Z,13.40
2023-10-07T08:58:50.712Z,13.70
2023-10-07T09:01:19.585Z,13.60
2023-10-07T09:03:53.474Z,13.90
2023-10-07T09:06:21.885Z,13.80
2023-10-07T09:08:51.281Z,13.80
2023-10-07T09:11:21.101Z,14.20
2023-10-07T09:13:51.282Z,14.20
2023-10-07T09:16:23.733Z,14.10
2023-10-07T09:18:57.174Z,14.10
2023-10-07T09:21:29.644Z,14.20
2023-10-07T09:24:02.959Z,13.60
2023-10-07T09:26:35.225Z,13.60
2023-10-07T09:29:15.919Z,14.20
2023-10-07T09:31:47.041Z,14.20
2023-10-07T09:34:31.426Z,13.80
2023-10-07T09:37:06.925Z,14.10
2023-10-07T09:39:45.261Z,13.70
2023-10-07T09:42:37.688Z,13.60
2023-10-07T09:45:17.998Z,13.80
2023-10-07T09:47:46.538Z,14.20
2023-10-07T09:50:26.875Z,14.50
2023-10-07T09:53:17.457Z,14.30
2023-10-07T09:56:05.325Z,14.00
2023-10-07T09:58:48.455Z,14.70
2023-10-07T10:01:40.305Z,14.80
2023-10-07T10:04:33.770Z,14.50
2023-10-07T10:07:29.556Z,15.20
2023-10-07T10:10:06.644Z,14.70
2023-10-07T10:12:57.662Z,14.70
2023-10-07T10:15:54.512Z,15.30
2023-10-07T10:18:41.411Z,15.30
2023-10-07T10:21:13.436Z,14.90
2023-10-07T10:23:45.435Z,15.40
2023-10-07T10:26:22.641Z,15.40
2023-10-07T10:29:05.385Z,15.00
2023-10-07T10:31:36.151Z,15.90
2023-10-07T10:34:07.235Z,15.70
2023-10-07T10:36:42.797Z,15.70
2023-10-07T10:41:59.644Z,15.70
2023-10-07T10:44:37.058Z,15.10
2023-10-07T10:47:06.453Z,15.70
2023-10-07T10:49:36.619Z,15.90
2023-10-07T10:52:05.731Z,15.80
2023-10-07T10:54:37.123Z,16.00
2023-10-07T10:57:09.015Z,16.20
2023-10-07T10:59:44.061Z,16.50
2023-10-07T11:02:13.400Z,16.70
2023-10-07T11:04:42.208Z,17.00
2023-10-07T11:07:10.313Z,17.20
2023-10-07T11:09:40.079Z,17.30
2023-10-07T11:12:14.069Z,17.20
2023-10-07T11:14:45.588Z,17.10
2023-10-07T11:17:17.510Z,17.30
2023-10-07T11:19:48.563Z,17.20
2023-10-07T11:22:20.616Z,17.10
2023-10-07T11:24:51.868Z,17.40
2023-10-07T11:27:25.623Z,17.80
2023-10-07T11:30:03.111Z,18.00
2023-10-07T11:32:31.658Z,18.00
2023-10-07T11:35:01.096Z,18.20
2023-10-07T11:37:29.522Z,18.50
2023-10-07T11:39:58.028Z,18.70
2023-10-07T11:42:25.957Z,18.80
2023-10-07T11:44:57.233Z,18.30
2023-10-07T11:47:28.402Z,18.70
2023-10-07T11:49:57.528Z,19.20
2023-10-07T11:52:29.069Z,18.80
2023-10-07T11:54:57.207Z,19.50
2023-10-07T11:57:25.406Z,19.80
2023-10-07T11:59:53.992Z,19.70
2023-10-07T12:02:25.140Z,19.90
2023-10-07T12:05:00.368Z,19.90
2023-10-07T12:07:31.453Z,19.90
2023-10-07T12:10:00.008Z,20.00
2023-10-07T12:12:31.933Z,20.10
2023-10-07T12:15:00.690Z,20.20
2023-10-07T12:17:28.669Z,20.30
2023-10-07T12:19:58.118Z,20.60
2023-10-07T12:22:26.431Z,20.40
2023-10-07T12:24:54.598Z,20.70
2023-10-07T12:27:22.584Z,20.90
2023-10-07T12:29:50.542Z,21.10
2023-10-07T12:32:18.584Z,21.10
2023-10-07T12:34:49.255Z,20.80
2023-10-07T12:37:18.905Z,21.10
2023-10-07T12:39:51.722Z,21.30
2023-10-07T12:42:20.167Z,21.40
2023-10-07T12:44:48.091Z,21.50
2023-10-07T12:47:16.421Z,21.30
2023-10-07T12:49:46.549Z,21.90
2023-10-07T12:52:17.912Z,21.90
2023-10-07T12:54:49.246Z,22.10
2023-10-07T12:57:17.167Z,22.40
2023-10-07T12:59:48.306Z,22.60
2023-10-07T13:02:18.669Z,22.80
2023-10-07T13:04:49.018Z,22.30
2023-10-07T13:07:19.733Z,22.90
2023-10-07T13:09:49.473Z,23.10
2023-10-07T13:12:20.025Z,23.10
2023-10-07T13:14:48.059Z,23.10
2023-10-07T13:17:17.253Z,23.20
2023-10-07T13:19:49.361Z,23.20
2023-10-07T13:22:19.452Z,23.30
2023-10-07T13:24:48.777Z,23.20
2023-10-07T13:27:17.573Z,23.10
2023-10-07T13:29:48.840Z,23.30
2023-10-07T13:32:18.614Z,23.50
2023-10-07T13:34:47.046Z,23.70
2023-10-07T13:37:14.963Z,23.60
2023-10-07T13:39:42.961Z,22.90
2023-10-07T13:42:12.539Z,22.20
2023-10-07T13:44:42.169Z,21.50
2023-10-07T13:47:10.240Z,21.00
2023-10-07T13:49:39.512Z,20.70
2023-10-07T13:52:10.874Z,20.40
2023-10-07T13:54:48.261Z,20.40
2023-10-07T13:57:25.590Z,21.00
2023-10-07T13:59:53.869Z,21.20
2023-10-07T14:02:22.311Z,21.10
2023-10-07T14:04:54.141Z,21.00
2023-10-07T14:07:22.542Z,20.90
2023-10-07T14:09:50.863Z,20.40
2023-10-07T14:12:20.104Z,20.30
2023-10-07T14:14:53.413Z,20.00
2023-10-07T14:17:22.688Z,19.90
2023-10-07T14:19:50.850Z,19.60
2023-10-07T14:22:19.350Z,19.60
2023-10-07T14:24:49.095Z,18.90
2023-10-07T14:27:18.367Z,19.50
2023-10-07T14:29:58.272Z,19.30
2023-10-07T14:32:29.032Z,19.30
2023-10-07T14:34:57.669Z,19.60
2023-10-07T14:37:26.118Z,19.40
2023-10-07T14:39:57.740Z,19.40
2023-10-07T14:42:27.072Z,18.80
2023-10-07T14:44:58.206Z,19.40
2023-10-07T14:47:26.884Z,19.20
2023-10-07T14:49:55.848Z,19.40
2023-10-07T14:52:24.337Z,19.20
2023-10-07T14:54:55.891Z,19.40
2023-10-07T14:57:24.198Z,19.30
2023-10-07T14:59:52.499Z,19.40
2023-10-07T15:02:21.849Z,19.30
2023-10-07T15:04:53.027Z,18.70
2023-10-07T15:07:21.721Z,19.30
2023-10-07T15:09:51.069Z,19.40
2023-10-07T15:12:21.020Z,19.10
2023-10-07T15:14:49.104Z,19.20
2023-10-07T15:17:17.844Z,19.30
2023-10-07T15:19:54.282Z,19.30
2023-10-07T15:22:22.401Z,19.10
2023-10-07T15:24:50.466Z,19.40
2023-10-07T15:27:18.669Z,19.00
2023-10-07T15:29:46.566Z,19.20
2023-10-07T15:32:14.575Z,19.00
2023-10-07T15:34:42.518Z,18.70
2023-10-07T15:37:12.190Z,19.30
2023-10-07T15:39:40.097Z,19.40
2023-10-07T15:42:13.585Z,19.20
2023-10-07T15:44:42.002Z,19.30
2023-10-07T15:47:10.682Z,19.40
2023-10-07T15:49:38.750Z,18.80
2023-10-07T15:52:09.702Z,19.20
2023-10-07T15:54:39.453Z,19.20
2023-10-07T15:57:09.910Z,19.20
2023-10-07T15:59:38.873Z,19.10
2023-10-07T16:02:09.794Z,19.20
2023-10-07T16:04:37.945Z,18.60
2023-10-07T16:07:06.199Z,18.80
2023-10-07T16:09:34.507Z,19.10
2023-10-07T16:12:05.308Z,19.10
2023-10-07T16:14:36.641Z,19.10
2023-10-07T16:17:06.567Z,19.10
2023-10-07T16:19:34.611Z,19.00
2023-10-07T16:22:03.037Z,19.10
2023-10-07T16:24:31.388Z,18.60
2023-10-07T16:26:59.341Z,19.10
2023-10-07T16:29:31.276Z,19.00
2023-10-07T16:31:59.722Z,18.90
2023-10-07T16:34:28.166Z,18.40
2023-10-07T16:36:56.515Z,18.90
2023-10-07T16:39:26.838Z,18.60
2023-10-07T16:41:55.595Z,18.70
2023-10-07T16:44:23.794Z,18.80
2023-10-07T16:46:54.180Z,18.80
2023-10-07T16:49:23.272Z,18.90
2023-10-07T16:51:52.634Z,18.80
2023-10-07T16:54:20.575Z,18.70
2023-10-07T16:56:48.738Z,18.10
2023-10-07T16:59:18.841Z,18.70
2023-10-07T17:01:46.809Z,18.70
2023-10-07T17:04:16.117Z,18.60
2023-10-07T17:06:44.090Z,18.60
2023-10-07T17:09:13.291Z,18.60
2023-10-07T17:11:44.285Z,18.50
2023-10-07T17:14:12.349Z,18.50
2023-10-07T17:16:40.428Z,18.60
2023-10-07T17:19:08.532Z,18.40
2023-10-07T17:21:38.873Z,18.00
2023-10-07T17:24:09.925Z,18.30
2023-10-07T17:26:39.385Z,17.80
2023-10-07T17:29:10.317Z,18.80
2023-10-07T17:31:38.652Z,18.30
2023-10-07T17:34:08.109Z,18.40
2023-10-07T17:36:39.308Z,18.30
2023-10-07T17:39:12.360Z,18.10
2023-10-07T17:41:47.873Z,18.40
2023-10-07T17:44:19.173Z,18.30
2023-10-07T17:46:47.848Z,18.10
2023-10-07T17:49:16.113Z,17.80
2023-10-07T17:51:50.009Z,18.00
2023-10-07T17:54:19.208Z,17.70
2023-10-07T17:56:47.604Z,17.50
2023-10-07T17:59:15.888Z,17.90
2023-10-07T18:01:46.293Z,17.90
2023-10-07T18:04:15.239Z,17.80
2023-10-07T18:06:43.153Z,17.80
2023-10-07T18:09:15.812Z,17.70
2023-10-07T18:11:53.741Z,17.50
2023-10-07T18:14:22.065Z,17.70
2023-10-07T18:16:51.817Z,17.70
2023-10-07T18:19:19.947Z,17.80
2023-10-07T18:21:48.902Z,17.50
2023-10-07T18:24:18.390Z,17.50
2023-10-07T18:26:47.328Z,17.50
2023-10-07T18:29:15.324Z,17.40
2023-10-07T18:31:44.170Z,17.40
2023-10-07T18:34:15.759Z,16.90
2023-10-07T18:36:44.624Z,17.30
2023-10-07T18:39:14.910Z,17.30
2023-10-07T18:41:44.790Z,17.30
2023-10-07T18:44:13.381Z,17.40
2023-10-07T18:46:43.648Z,17.30
2023-10-07T18:49:12.094Z,16.70
2023-10-07T18:51:45.839Z,17.20
2023-10-07T18:54:14.663Z,16.90
2023-10-07T18:56:43.995Z,17.20
2023-10-07T18:59:15.099Z,17.20
2023-10-07T19:01:43.069Z,17.20
2023-10-07T19:04:11.475Z,17.20
2023-10-07T19:06:41.235Z,17.30
2023-10-07T19:09:10.453Z,16.80
2023-10-07T19:11:40.193Z,16.90
2023-10-07T19:14:11.080Z,17.30
2023-10-07T19:16:41.294Z,16.80
2023-10-07T19:19:14.843Z,17.20
2023-10-07T19:21:44.821Z,17.30
2023-10-07T19:24:12.994Z,17.20
2023-10-07T19:26:42.356Z,17.20
2023-10-07T19:29:12.953Z,17.20
2023-10-07T19:31:43.199Z,17.20
2023-10-07T19:34:12.979Z,17.10
2023-10-07T19:36:41.903Z,17.10
2023-10-07T19:39:10.691Z,17.20
2023-10-07T19:41:41.149Z,17.10
2023-10-07T19:44:09.944Z,16.70
2023-10-07T19:46:39.349Z,17.10
2023-10-07T19:49:08.025Z,16.70
2023-10-07T19:51:37.848Z,17.10
2023-10-07T19:54:07.244Z,17.00
2023-10-07T19:56:37.137Z,16.90
2023-10-07T19:59:05.224Z,16.40
2023-10-07T20:01:33.175Z,16.90
2023-10-07T20:04:04.796Z,16.80
2023-10-07T20:06:34.447Z,16.90
2023-10-07T20:09:06.257Z,16.80
2023-10-07T20:11:34.313Z,17.00
2023-10-07T20:14:03.910Z,16.80
2023-10-07T20:16:34.783Z,16.70
2023-10-07T20:19:06.339Z,16.70
2023-10-07T20:21:34.574Z,16.70
2023-10-07T20:24:03.563Z,16.80
2023-10-07T20:26:32.533Z,16.70
2023-10-07T20:29:02.160Z,16.70
2023-10-07T20:31:30.508Z,16.20
2023-10-07T20:33:59.986Z,16.60
2023-10-07T20:36:36.596Z,16.30
2023-10-07T20:39:11.568Z,16.50
2023-10-07T20:41:41.627Z,16.30
2023-10-07T20:44:10.688Z,15.90
2023-10-07T20:46:38.713Z,16.30
2023-10-07T20:49:07.768Z,16.60
2023-10-07T20:51:40.942Z,16.50
2023-10-07T20:54:09.302Z,16.10
2023-10-07T20:56:39.759Z,15.90
2023-10-07T20:59:10.161Z,16.20
2023-10-07T21:01:42.004Z,16.50
2023-10-07T21:04:10.703Z,16.50
2023-10-07T21:06:41.571Z,16.30
2023-10-07T21:09:12.092Z,16.50
2023-10-07T21:11:40.963Z,16.50
2023-10-07T21:14:09.044Z,16.60
2023-10-07T21:16:39.752Z,16.50
2023-10-07T21:19:07.871Z,16.90
2023-10-07T21:21:37.347Z,16.40
2023-10-07T21:24:19.032Z,16.40
2023-10-07T21:26:55.072Z,16.40
2023-10-07T21:29:24.205Z,16.40
2023-10-07T21:31:52.290Z,16.50
2023-10-07T21:34:20.299Z,16.50
2023-10-07T21:36:48.222Z,16.00
2023-10-07T21:39:17.619Z,15.70
2023-10-07T21:41:45.670Z,16.90
2023-10-07T21:44:14.250Z,16.50
2023-10-07T21:46:45.175Z,16.30
2023-10-07T21:49:13.695Z,16.30
2023-10-07T21:51:44.070Z,16.20
2023-10-07T21:54:12.521Z,15.80
2023-10-07T21:56:43.577Z,16.30
2023-10-07T21:59:14.746Z,16.20
2023-10-07T22:01:44.304Z,16.30
2023-10-07T22:04:18.120Z,16.20
2023-10-07T22:06:50.352Z,16.40
2023-10-07T22:09:21.218Z,16.10
2023-10-07T22:11:50.965Z,15.60
2023-10-07T22:14:20.544Z,15.60
2023-10-07T22:16:50.402Z,16.20
2023-10-07T22:19:20.135Z,16.10
2023-10-07T22:21:49.777Z,16.20
2023-10-07T22:24:18.747Z,16.20
2023-10-07T22:26:46.723Z,16.30
2023-10-07T22:29:19.700Z,16.20
2023-10-07T22:31:55.630Z,16.30
2023-10-07T22:34:24.104Z,15.80
2023-10-07T22:36:55.884Z,16.10
2023-10-07T22:39:31.698Z,16.10
2023-10-07T22:42:13.640Z,15.50
2023-10-07T22:44:46.956Z,15.50
2023-10-07T22:47:15.333Z,15.80
